createdAt,value
2016-05-22T00:00:25.375Z,1004.13
2016-05-22T00:01:25.409Z,1004.08
2016-05-22T00:02:25.459Z,1004.06
2016-05-22T00:03:25.493Z,1004.07
2016-05-22T00:04:25.526Z,1004.08
2016-05-22T00:05:25.576Z,1004.06
2016-05-22T00:06:25.610Z,1004.03
2016-05-22T00:07:25.643Z,1004.03
2016-05-22T00:08:25.679Z,1004.03
2016-05-22T00:09:25.728Z,1004.01
2016-05-22T00:10:25.761Z,1004.03
2016-05-22T00:11:25.796Z,1004.01
2016-05-22T00:12:25.829Z,1004.01
2016-05-22T00:13:25.878Z,1004.03
2016-05-22T00:14:25.960Z,1004.01
2016-05-22T00:15:25.947Z,1004.02
2016-05-22T00:16:25.981Z,1004.03
2016-05-22T00:17:26.014Z,1004.05
2016-05-22T00:18:26.048Z,1004.06
2016-05-22T00:19:26.098Z,1004
2016-05-22T00:20:26.132Z,1003.94
2016-05-22T00:21:26.166Z,1003.92
2016-05-22T00:22:26.216Z,1003.93
2016-05-22T00:23:26.249Z,1003.9
2016-05-22T00:24:26.284Z,1003.86
2016-05-22T00:25:26.317Z,1003.83
2016-05-22T00:26:26.366Z,1003.79
2016-05-22T00:27:26.433Z,1003.75
2016-05-22T00:28:26.435Z,1003.74
2016-05-22T00:29:26.469Z,1003.66
2016-05-22T00:30:26.518Z,1003.61
2016-05-22T00:31:26.537Z,1003.55
2016-05-22T00:32:26.586Z,1003.54
2016-05-22T00:33:26.620Z,1003.55
2016-05-22T00:34:26.654Z,1003.52
2016-05-22T00:35:26.704Z,1003.52
2016-05-22T00:36:26.738Z,1003.55
2016-05-22T00:37:26.771Z,1003.52
2016-05-22T00:38:26.806Z,1003.53
2016-05-22T00:39:26.840Z,1003.5
2016-05-22T00:40:26.889Z,1003.45
2016-05-22T00:41:26.923Z,1003.47
2016-05-22T00:42:26.973Z,1003.45
2016-05-22T00:43:26.990Z,1003.43
2016-05-22T00:44:27.041Z,1003.46
2016-05-22T00:45:27.075Z,1003.43
2016-05-22T00:46:27.108Z,1003.4
2016-05-22T00:47:27.143Z,1003.43
2016-05-22T00:48:27.176Z,1003.4
2016-05-22T00:49:27.225Z,1003.44
2016-05-22T00:50:27.259Z,1003.41
2016-05-22T00:51:27.294Z,1003.42
2016-05-22T00:52:27.344Z,1003.41
2016-05-22T00:53:27.377Z,1003.4
2016-05-22T00:54:27.411Z,1003.41
2016-05-22T00:55:27.445Z,1003.4
2016-05-22T00:56:27.479Z,1003.39
2016-05-22T00:57:27.528Z,1003.37
2016-05-22T00:58:27.563Z,1003.36
2016-05-22T00:59:27.597Z,1003.34
2016-05-22T01:00:27.646Z,1003.34
2016-05-22T01:01:27.664Z,1003.33
2016-05-22T01:02:27.698Z,1003.31
2016-05-22T01:03:27.748Z,1003.36
2016-05-22T01:04:27.782Z,1003.34
2016-05-22T01:05:27.815Z,1003.34
2016-05-22T01:06:27.849Z,1003.33
2016-05-22T01:07:27.884Z,1003.3
2016-05-22T01:08:27.933Z,1003.31
2016-05-22T01:09:27.967Z,1003.28
2016-05-22T01:10:28.001Z,1003.27
2016-05-22T01:11:28.051Z,1003.26
2016-05-22T01:12:28.068Z,1003.27
2016-05-22T01:13:28.103Z,1003.25
2016-05-22T01:14:28.153Z,1003.23
2016-05-22T01:15:28.186Z,1003.21
2016-05-22T01:16:28.221Z,1003.22
2016-05-22T01:17:28.254Z,1003.19
2016-05-22T01:18:28.303Z,1003.22
2016-05-22T01:19:28.337Z,1003.17
2016-05-22T01:20:28.372Z,1003.15
2016-05-22T01:21:28.406Z,1003.12
2016-05-22T01:22:28.456Z,1003.15
2016-05-22T01:23:28.489Z,1003.19
2016-05-22T01:24:28.523Z,1003.19
2016-05-22T01:25:28.557Z,1003.19
2016-05-22T01:26:28.606Z,1003.17
2016-05-22T01:27:28.625Z,1003.15
2016-05-22T01:28:28.674Z,1003.17
2016-05-22T01:29:28.708Z,1003.13
2016-05-22T01:30:28.741Z,1003.14
2016-05-22T01:31:28.776Z,1003.1
2016-05-22T01:32:28.810Z,1003.06
2016-05-22T01:33:28.860Z,1003.1
2016-05-22T01:34:28.893Z,1003.11
2016-05-22T01:35:28.927Z,1003.12
2016-05-22T01:36:28.962Z,1003.15
2016-05-22T01:37:28.996Z,1003.12
2016-05-22T01:38:29.045Z,1003.1
2016-05-22T01:39:29.079Z,1003.09
2016-05-22T01:40:29.112Z,1003.09
2016-05-22T01:41:29.147Z,1003.09
2016-05-22T01:42:29.181Z,1003.13
2016-05-22T01:43:29.231Z,1003.11
2016-05-22T01:44:29.264Z,1003.13
2016-05-22T01:45:29.298Z,1003.07
2016-05-22T01:46:29.332Z,1003.08
2016-05-22T01:47:29.367Z,1003.08
2016-05-22T01:48:29.415Z,1003.12
2016-05-22T01:49:29.450Z,1003.06
2016-05-22T01:50:29.484Z,1003.07
2016-05-22T01:51:29.533Z,1003.1
2016-05-22T01:52:29.567Z,1003.08
2016-05-22T01:53:29.600Z,1003.1
2016-05-22T01:54:29.636Z,1003.08
2016-05-22T01:55:29.669Z,1003.05
2016-05-22T01:56:29.703Z,1003.03
2016-05-22T01:57:29.736Z,1003.05
2016-05-22T01:58:29.786Z,1003.02
2016-05-22T01:59:29.820Z,1003.01
2016-05-22T02:00:29.855Z,1003
2016-05-22T02:01:29.904Z,1003
2016-05-22T02:02:29.938Z,1003.01
2016-05-22T02:03:29.955Z,1003.01
2016-05-22T02:04:30.006Z,1002.91
2016-05-22T02:05:30.040Z,1002.91
2016-05-22T02:06:30.073Z,1002.89
2016-05-22T02:07:30.108Z,1002.87
2016-05-22T02:08:30.141Z,1002.84
2016-05-22T02:09:30.191Z,1002.81
2016-05-22T02:10:30.224Z,1002.82
2016-05-22T02:11:30.259Z,1002.81
2016-05-22T02:12:30.293Z,1002.78
2016-05-22T02:13:30.343Z,1002.8
2016-05-22T02:14:30.360Z,1002.76
2016-05-22T02:15:30.410Z,1002.78
2016-05-22T02:16:30.445Z,1002.8
2016-05-22T02:17:30.478Z,1002.79
2016-05-22T02:18:30.512Z,1002.8
2016-05-22T02:19:30.546Z,1002.78
2016-05-22T02:20:30.581Z,1002.76
2016-05-22T02:21:30.629Z,1002.78
2016-05-22T02:22:30.664Z,1002.77
2016-05-22T02:23:30.697Z,1002.77
2016-05-22T02:24:30.731Z,1002.79
2016-05-22T02:25:30.765Z,1002.76
2016-05-22T02:26:30.815Z,1002.76
2016-05-22T02:27:30.849Z,1002.77
2016-05-22T02:28:30.883Z,1002.77
2016-05-22T02:29:30.917Z,1002.78
2016-05-22T02:30:30.950Z,1002.78
2016-05-22T02:31:30.985Z,1002.74
2016-05-22T02:32:31.019Z,1002.72
2016-05-22T02:33:31.069Z,1002.66
2016-05-22T02:34:31.102Z,1002.67
2016-05-22T02:35:31.136Z,1002.64
2016-05-22T02:36:31.169Z,1002.65
2016-05-22T02:37:31.204Z,1002.67
2016-05-22T02:38:31.238Z,1002.62
2016-05-22T02:39:31.288Z,1002.63
2016-05-22T02:40:31.321Z,1002.67
2016-05-22T02:41:31.355Z,1002.66
2016-05-22T02:42:31.390Z,1002.65
2016-05-22T02:43:31.423Z,1002.64
2016-05-22T02:44:31.456Z,1002.64
2016-05-22T02:45:31.491Z,1002.57
2016-05-22T02:46:31.540Z,1002.58
2016-05-22T02:47:31.574Z,1002.58
2016-05-22T02:48:31.609Z,1002.58
2016-05-22T02:49:31.642Z,1002.55
2016-05-22T02:50:31.676Z,1002.51
2016-05-22T02:51:31.726Z,1002.47
2016-05-22T02:52:31.759Z,1002.45
2016-05-22T02:53:31.794Z,1002.42
2016-05-22T02:54:31.828Z,1002.37
2016-05-22T02:55:31.861Z,1002.38
2016-05-22T02:56:31.895Z,1002.34
2016-05-22T02:57:31.930Z,1002.28
2016-05-22T02:58:31.978Z,1002.3
2016-05-22T02:59:32.013Z,1002.32
2016-05-22T03:00:32.047Z,1002.31
2016-05-22T03:01:32.081Z,1002.34
2016-05-22T03:02:32.114Z,1002.31
2016-05-22T03:03:32.148Z,1002.35
2016-05-22T03:04:32.183Z,1002.35
2016-05-22T03:05:32.232Z,1002.35
2016-05-22T03:06:32.266Z,1002.38
2016-05-22T03:07:32.300Z,1002.38
2016-05-22T03:08:32.335Z,1002.36
2016-05-22T03:09:32.368Z,1002.36
2016-05-22T03:10:32.401Z,1002.32
2016-05-22T03:11:32.435Z,1002.37
2016-05-22T03:12:32.485Z,1002.35
2016-05-22T03:13:32.519Z,1002.37
2016-05-22T03:14:32.553Z,1002.4
2016-05-22T03:15:32.587Z,1002.38
2016-05-22T03:16:32.621Z,1002.38
2016-05-22T03:17:32.654Z,1002.37
2016-05-22T03:18:32.690Z,1002.35
2016-05-22T03:19:32.739Z,1002.31
2016-05-22T03:20:32.773Z,1002.31
2016-05-22T03:21:32.806Z,1002.28
2016-05-22T03:22:32.840Z,1002.18
2016-05-22T03:23:32.890Z,1002.16
2016-05-22T03:24:32.908Z,1002.17
2016-05-22T03:25:32.958Z,1002.19
2016-05-22T03:26:32.992Z,1002.14
2016-05-22T03:27:33.025Z,1002.14
2016-05-22T03:28:33.059Z,1002.15
2016-05-22T03:29:33.110Z,1002.14
2016-05-22T03:30:33.176Z,1002.13
2016-05-22T03:31:33.241Z,1002.15
2016-05-22T03:32:33.307Z,1002.15
2016-05-22T03:33:33.388Z,1002.13
2016-05-22T03:34:33.443Z,1002.13
2016-05-22T03:35:33.488Z,1002.16
2016-05-22T03:36:33.532Z,1002.17
2016-05-22T03:37:33.578Z,1002.12
2016-05-22T03:38:33.638Z,1002.12
2016-05-22T03:39:33.680Z,1002.09
2016-05-22T03:40:33.718Z,1002.08
2016-05-22T03:41:33.756Z,1002.06
2016-05-22T03:42:33.793Z,1002.02
2016-05-22T03:43:33.832Z,1002.02
2016-05-22T03:44:33.869Z,1001.97
2016-05-22T03:45:33.921Z,1001.98
2016-05-22T03:46:33.956Z,1002
2016-05-22T03:47:33.991Z,1001.98
2016-05-22T03:48:34.027Z,1001.96
2016-05-22T03:49:34.061Z,1002.02
2016-05-22T03:50:34.096Z,1002.01
2016-05-22T03:51:34.130Z,1001.97
2016-05-22T03:52:34.180Z,1002.01
2016-05-22T03:53:34.214Z,1002.01
2016-05-22T03:54:34.248Z,1002.03
2016-05-22T03:55:34.283Z,1002.01
2016-05-22T03:56:34.316Z,1002.01
2016-05-22T03:57:34.647Z,1001.97
2016-05-22T03:58:34.383Z,1001.93
2016-05-22T03:59:34.433Z,1001.94
2016-05-22T04:00:34.468Z,1001.91
2016-05-22T04:01:34.502Z,1001.84
2016-05-22T04:02:34.535Z,1001.84
2016-05-22T04:03:34.569Z,1001.81
2016-05-22T04:04:34.603Z,1001.81
2016-05-22T04:05:34.637Z,1001.73
2016-05-22T04:06:34.672Z,1001.73
2016-05-22T04:07:34.721Z,1001.69
2016-05-22T04:08:34.754Z,1001.7
2016-05-22T04:09:34.788Z,1001.64
2016-05-22T04:10:34.823Z,1001.66
2016-05-22T04:11:34.857Z,1001.62
2016-05-22T04:12:34.907Z,1001.58
2016-05-22T04:13:34.940Z,1001.54
2016-05-22T04:14:34.973Z,1001.53
2016-05-22T04:15:35.008Z,1001.51
2016-05-22T04:16:35.042Z,1001.5
2016-05-22T04:17:35.076Z,1001.46
2016-05-22T04:18:35.110Z,1001.43
2016-05-22T04:19:35.145Z,1001.41
2016-05-22T04:20:35.192Z,1001.39
2016-05-22T04:21:35.228Z,1001.34
2016-05-22T04:22:35.261Z,1001.35
2016-05-22T04:23:35.311Z,1001.32
2016-05-22T04:24:35.329Z,1001.28
2016-05-22T04:25:35.364Z,1001.31
2016-05-22T04:26:35.413Z,1001.29
2016-05-22T04:27:35.447Z,1001.3
2016-05-22T04:28:35.481Z,1001.3
2016-05-22T04:29:35.514Z,1001.31
2016-05-22T04:30:35.549Z,1001.31
2016-05-22T04:31:35.582Z,1001.27
2016-05-22T04:32:35.632Z,1001.33
2016-05-22T04:33:35.666Z,1001.32
2016-05-22T04:34:35.699Z,1001.32
2016-05-22T04:35:35.733Z,1001.32
2016-05-22T04:36:35.768Z,1001.22
2016-05-22T04:37:35.802Z,1001.19
2016-05-22T04:38:35.835Z,1001.19
2016-05-22T04:39:35.885Z,1001.18
2016-05-22T04:40:35.918Z,1001.15
2016-05-22T04:41:35.953Z,1001.14
2016-05-22T04:42:35.987Z,1001.08
2016-05-22T04:43:36.037Z,1001.06
2016-05-22T04:44:36.070Z,1001.03
2016-05-22T04:45:36.104Z,1001.04
2016-05-22T04:46:36.138Z,1001.04
2016-05-22T04:47:36.172Z,1000.98
2016-05-22T04:48:36.206Z,1000.97
2016-05-22T04:49:36.256Z,1001
2016-05-22T04:50:36.290Z,1001.05
2016-05-22T04:51:36.323Z,1001.03
2016-05-22T04:52:36.358Z,1001.04
2016-05-22T04:53:36.391Z,1001.06
2016-05-22T04:54:36.425Z,1001.07
2016-05-22T04:55:36.475Z,1001.08
2016-05-22T04:56:36.508Z,1001.06
2016-05-22T04:57:36.542Z,1001.03
2016-05-22T04:58:36.577Z,1001
2016-05-22T04:59:36.627Z,1000.96
2016-05-22T05:00:36.660Z,1000.95
2016-05-22T05:01:36.694Z,1000.93
2016-05-22T05:02:36.727Z,1000.91
2016-05-22T05:03:36.762Z,1000.9
2016-05-22T05:04:36.811Z,1000.83
2016-05-22T05:05:36.846Z,1000.85
2016-05-22T05:06:36.879Z,1000.86
2016-05-22T05:07:36.913Z,1000.86
2016-05-22T05:08:36.947Z,1000.86
2016-05-22T05:09:36.996Z,1000.88
2016-05-22T05:10:37.032Z,1000.88
2016-05-22T05:11:37.065Z,1000.79
2016-05-22T05:12:37.536Z,1000.78
2016-05-22T05:13:37.148Z,1000.71
2016-05-22T05:14:37.182Z,1000.75
2016-05-22T05:15:37.215Z,1000.74
2016-05-22T05:16:37.266Z,1000.69
2016-05-22T05:17:37.300Z,1000.67
2016-05-22T05:18:37.333Z,1000.72
2016-05-22T05:19:37.367Z,1000.7
2016-05-22T05:20:37.417Z,1000.7
2016-05-22T05:21:37.451Z,1000.65
2016-05-22T05:22:37.485Z,1000.62
2016-05-22T05:23:37.535Z,1000.68
2016-05-22T05:24:37.568Z,1000.69
2016-05-22T05:25:37.602Z,1000.73
2016-05-22T05:26:37.653Z,1000.67
2016-05-22T05:27:37.686Z,1000.67
2016-05-22T05:28:37.720Z,1000.67
2016-05-22T05:29:37.770Z,1000.67
2016-05-22T05:30:37.803Z,1000.68
2016-05-22T05:31:37.837Z,1000.73
2016-05-22T05:32:37.887Z,1000.7
2016-05-22T05:33:37.921Z,1000.71
2016-05-22T05:34:37.955Z,1000.77
2016-05-22T05:35:37.989Z,1000.78
2016-05-22T05:36:38.039Z,1000.83
2016-05-22T05:37:38.088Z,1000.82
2016-05-22T05:38:38.122Z,1000.83
2016-05-22T05:39:38.155Z,1000.84
2016-05-22T05:40:38.190Z,1000.82
2016-05-22T05:41:38.224Z,1000.85
2016-05-22T05:42:38.274Z,1000.91
2016-05-22T05:43:38.307Z,1000.95
2016-05-22T05:44:38.340Z,1000.93
2016-05-22T05:45:38.390Z,1000.89
2016-05-22T05:46:38.424Z,1000.9
2016-05-22T05:47:38.473Z,1000.87
2016-05-22T05:48:38.509Z,1000.86
2016-05-22T05:49:38.542Z,1000.87
2016-05-22T05:50:38.592Z,1000.81
2016-05-22T05:51:38.625Z,1000.82
2016-05-22T05:52:38.660Z,1000.76
2016-05-22T05:53:38.709Z,1000.78
2016-05-22T05:54:38.728Z,1000.77
2016-05-22T05:55:38.777Z,1000.73
2016-05-22T05:56:38.826Z,1000.7
2016-05-22T05:57:38.861Z,1000.7
2016-05-22T05:58:38.894Z,1000.69
2016-05-22T05:59:38.928Z,1000.66
2016-05-22T06:00:38.978Z,1000.63
2016-05-22T06:01:39.011Z,1000.61
2016-05-22T06:02:39.046Z,1000.54
2016-05-22T06:03:39.094Z,1000.55
2016-05-22T06:04:39.130Z,1000.51
2016-05-22T06:05:39.163Z,1000.41
2016-05-22T06:06:39.213Z,1000.42
2016-05-22T06:07:39.247Z,1000.4
2016-05-22T06:08:39.296Z,1000.33
2016-05-22T06:09:39.330Z,1000.27
2016-05-22T06:10:39.364Z,1000.26
2016-05-22T06:11:39.398Z,1000.22
2016-05-22T06:12:39.448Z,1000.29
2016-05-22T06:13:39.482Z,1000.28
2016-05-22T06:14:39.516Z,1000.28
2016-05-22T06:15:39.549Z,1000.37
2016-05-22T06:16:39.599Z,1000.38
2016-05-22T06:17:39.633Z,1000.36
2016-05-22T06:18:39.668Z,1000.38
2016-05-22T06:19:39.717Z,1000.4
2016-05-22T06:20:39.750Z,1000.36
2016-05-22T06:21:39.800Z,1000.39
2016-05-22T06:22:39.834Z,1000.4
2016-05-22T06:23:39.868Z,1000.37
2016-05-22T06:24:39.918Z,1000.33
2016-05-22T06:25:39.951Z,1000.31
2016-05-22T06:26:39.985Z,1000.29
2016-05-22T06:27:40.035Z,1000.31
2016-05-22T06:28:40.069Z,1000.3
2016-05-22T06:29:40.103Z,1000.28
2016-05-22T06:30:40.153Z,1000.28
2016-05-22T06:31:40.187Z,1000.29
2016-05-22T06:32:40.219Z,1000.34
2016-05-22T06:33:40.269Z,1000.32
2016-05-22T06:34:40.303Z,1000.33
2016-05-22T06:35:40.353Z,1000.35
2016-05-22T06:36:40.388Z,1000.4
2016-05-22T06:37:40.421Z,1000.38
2016-05-22T06:38:40.470Z,1000.43
2016-05-22T06:39:40.520Z,1000.39
2016-05-22T06:40:40.554Z,1000.38
2016-05-22T06:41:40.588Z,1000.35
2016-05-22T06:42:40.622Z,1000.4
2016-05-22T06:43:40.735Z,1000.37
2016-05-22T06:44:40.705Z,1000.38
2016-05-22T06:45:40.739Z,1000.39
2016-05-22T06:46:40.790Z,1000.42
2016-05-22T06:47:40.823Z,1000.45
2016-05-22T06:48:40.857Z,1000.44
2016-05-22T06:49:40.907Z,1000.4
2016-05-22T06:50:40.940Z,1000.4
2016-05-22T06:51:40.989Z,1000.44
2016-05-22T06:52:41.023Z,1000.42
2016-05-22T06:53:41.058Z,1000.4
2016-05-22T06:54:41.107Z,1000.35
2016-05-22T06:55:41.142Z,1000.37
2016-05-22T06:56:41.175Z,1000.32
2016-05-22T06:57:41.225Z,1000.3
2016-05-22T06:58:41.259Z,1000.32
2016-05-22T06:59:41.308Z,1000.27
2016-05-22T07:00:41.343Z,1000.28
2016-05-22T07:01:41.376Z,1000.18
2016-05-22T07:02:41.425Z,1000.22
2016-05-22T07:03:41.460Z,1000.24
2016-05-22T07:04:41.509Z,1000.16
2016-05-22T07:05:41.543Z,1000.14
2016-05-22T07:06:41.577Z,1000.09
2016-05-22T07:07:41.627Z,1000.12
2016-05-22T07:08:41.661Z,1000.08
2016-05-22T07:09:41.710Z,1000.07
2016-05-22T07:10:41.744Z,1000.04
2016-05-22T07:11:41.778Z,1000.02
2016-05-22T07:12:41.827Z,1000.04
2016-05-22T07:13:41.862Z,1000.05
2016-05-22T07:14:41.896Z,1000.02
2016-05-22T07:15:41.945Z,999.97
2016-05-22T07:16:41.979Z,999.94
2016-05-22T07:17:42.029Z,1000.02
2016-05-22T07:18:42.079Z,1000.02
2016-05-22T07:19:42.112Z,999.98
2016-05-22T07:20:42.146Z,999.93
2016-05-22T07:21:42.180Z,999.92
2016-05-22T07:22:42.230Z,999.9
2016-05-22T07:23:42.264Z,999.96
2016-05-22T07:24:42.313Z,999.92
2016-05-22T07:25:42.348Z,999.96
2016-05-22T07:26:42.381Z,999.94
2016-05-22T07:27:42.431Z,999.94
2016-05-22T07:28:42.464Z,999.99
2016-05-22T07:29:42.514Z,999.99
2016-05-22T07:30:42.548Z,1000.01
2016-05-22T07:31:42.598Z,1000.01
2016-05-22T07:32:42.631Z,999.97
2016-05-22T07:33:42.680Z,999.9
2016-05-22T07:34:42.714Z,999.88
2016-05-22T07:35:42.750Z,999.84
2016-05-22T07:36:42.799Z,999.81
2016-05-22T07:37:42.848Z,999.82
2016-05-22T07:38:42.882Z,999.83
2016-05-22T07:39:42.916Z,999.83
2016-05-22T07:40:42.949Z,999.8
2016-05-22T07:41:42.999Z,999.79
2016-05-22T07:42:43.033Z,999.78
2016-05-22T07:43:43.083Z,999.79
2016-05-22T07:44:43.116Z,999.75
2016-05-22T07:45:43.166Z,999.73
2016-05-22T07:46:43.200Z,999.73
2016-05-22T07:47:43.234Z,999.72
2016-05-22T07:48:43.285Z,999.72
2016-05-22T07:49:43.318Z,999.74
2016-05-22T07:50:43.367Z,999.71
2016-05-22T07:51:43.401Z,999.7
2016-05-22T07:52:43.451Z,999.65
2016-05-22T07:53:43.484Z,999.62
2016-05-22T07:54:43.535Z,999.68
2016-05-22T07:55:43.568Z,999.72
2016-05-22T07:56:43.617Z,999.7
2016-05-22T07:57:43.918Z,999.68
2016-05-22T07:58:43.701Z,999.68
2016-05-22T07:59:43.735Z,999.65
2016-05-22T08:00:43.785Z,999.63
2016-05-22T08:01:43.820Z,999.57
2016-05-22T08:02:43.869Z,999.61
2016-05-22T08:03:43.902Z,999.48
2016-05-22T08:04:43.953Z,999.63
2016-05-22T08:05:43.986Z,999.67
2016-05-22T08:06:44.035Z,999.67
2016-05-22T08:07:44.069Z,999.64
2016-05-22T08:08:44.119Z,999.66
2016-05-22T08:09:44.153Z,999.68
2016-05-22T08:10:44.203Z,999.69
2016-05-22T08:11:44.252Z,999.67
2016-05-22T08:12:44.286Z,999.74
2016-05-22T08:13:44.335Z,999.71
2016-05-22T08:14:44.369Z,999.77
2016-05-22T08:15:44.418Z,999.73
2016-05-22T08:16:44.468Z,999.78
2016-05-22T08:17:44.502Z,999.81
2016-05-22T08:18:44.552Z,999.82
2016-05-22T08:19:44.601Z,999.82
2016-05-22T08:20:44.635Z,999.81
2016-05-22T08:21:44.685Z,999.84
2016-05-22T08:22:44.735Z,999.83
2016-05-22T08:23:44.784Z,999.82
2016-05-22T08:24:44.818Z,999.84
2016-05-22T08:25:44.868Z,999.82
2016-05-22T08:26:44.917Z,999.8
2016-05-22T08:27:45.561Z,999.82
2016-05-22T08:28:45.001Z,999.82
2016-05-22T08:29:45.051Z,999.8
2016-05-22T08:30:45.100Z,999.7
2016-05-22T08:31:45.134Z,999.76
2016-05-22T08:32:45.183Z,999.76
2016-05-22T08:33:45.249Z,999.79
2016-05-22T08:34:45.283Z,999.81
2016-05-22T08:35:45.333Z,999.82
2016-05-22T08:36:45.366Z,999.77
2016-05-22T08:37:45.416Z,999.81
2016-05-22T08:38:45.465Z,999.79
2016-05-22T08:39:45.515Z,999.83
2016-05-22T08:40:45.564Z,999.82
2016-05-22T08:41:45.599Z,999.83
2016-05-22T08:42:45.647Z,999.75
2016-05-22T08:43:45.697Z,999.79
2016-05-22T08:44:45.747Z,999.8
2016-05-22T08:45:45.781Z,999.81
2016-05-22T08:46:45.846Z,999.84
2016-05-22T08:47:45.880Z,999.81
2016-05-22T08:48:45.945Z,999.82
2016-05-22T08:49:46.010Z,999.84
2016-05-22T08:50:46.029Z,999.87
2016-05-22T08:51:46.078Z,999.95
2016-05-22T08:52:46.128Z,999.9
2016-05-22T08:53:46.193Z,999.91
2016-05-22T08:54:46.227Z,999.91
2016-05-22T08:55:46.276Z,999.97
2016-05-22T08:56:46.310Z,999.94
2016-05-22T08:57:46.360Z,1000
2016-05-22T08:58:46.409Z,1000.05
2016-05-22T08:59:46.459Z,1000.06
2016-05-22T09:00:46.508Z,1000.01
2016-05-22T09:01:46.558Z,1000.07
2016-05-22T09:02:46.608Z,999.98
2016-05-22T09:03:46.658Z,1000
2016-05-22T09:04:46.691Z,1000.05
2016-05-22T09:05:46.756Z,1000.03
2016-05-22T09:06:46.806Z,1000.02
2016-05-22T09:07:46.840Z,1000.09
2016-05-22T09:08:46.889Z,1000.01
2016-05-22T09:09:46.939Z,999.99
2016-05-22T09:10:46.989Z,999.98
2016-05-22T09:11:47.038Z,999.97
2016-05-22T09:12:47.088Z,999.99
2016-05-22T09:13:47.138Z,999.93
2016-05-22T09:14:47.188Z,999.97
2016-05-22T09:15:47.221Z,999.96
2016-05-22T09:16:47.270Z,999.95
2016-05-22T09:17:47.320Z,999.95
2016-05-22T09:18:47.369Z,999.87
2016-05-22T09:19:47.419Z,999.86
2016-05-22T09:20:47.468Z,999.9
2016-05-22T09:21:47.518Z,999.89
2016-05-22T09:22:47.568Z,999.88
2016-05-22T09:23:47.618Z,999.93
2016-05-22T09:24:47.667Z,999.92
2016-05-22T09:25:47.701Z,999.91
2016-05-22T09:26:47.751Z,999.93
2016-05-22T09:27:47.800Z,999.86
2016-05-22T09:28:47.850Z,999.86
2016-05-22T09:29:47.899Z,999.81
2016-05-22T09:30:47.949Z,999.86
2016-05-22T09:31:47.999Z,999.89
2016-05-22T09:32:48.064Z,1000
2016-05-22T09:33:48.097Z,999.89
2016-05-22T09:34:48.131Z,999.91
2016-05-22T09:35:48.181Z,999.93
2016-05-22T09:36:48.246Z,999.86
2016-05-22T09:37:48.280Z,999.9
2016-05-22T09:38:48.330Z,999.85
2016-05-22T09:39:48.380Z,999.87
2016-05-22T09:40:48.428Z,999.91
2016-05-22T09:41:48.478Z,999.91
2016-05-22T09:42:48.513Z,999.91
2016-05-22T09:43:48.577Z,999.92
2016-05-22T09:44:48.611Z,999.91
2016-05-22T09:45:48.661Z,999.87
2016-05-22T09:46:48.711Z,999.87
2016-05-22T09:47:48.760Z,999.9
2016-05-22T09:48:48.810Z,999.9
2016-05-22T09:49:48.860Z,999.89
2016-05-22T09:50:48.893Z,999.92
2016-05-22T09:51:48.958Z,999.95
2016-05-22T09:52:48.993Z,999.9
2016-05-22T09:53:49.043Z,1000
2016-05-22T09:54:49.091Z,999.91
2016-05-22T09:55:49.141Z,999.95
2016-05-22T09:56:49.175Z,999.96
2016-05-22T09:57:49.334Z,1000.02
2016-05-22T09:58:49.274Z,1000.04
2016-05-22T09:59:49.323Z,1000.01
2016-05-22T10:00:49.373Z,1000
2016-05-22T10:01:49.423Z,999.97
2016-05-22T10:02:49.472Z,1000.1
2016-05-22T10:03:49.506Z,1000.08
2016-05-22T10:04:49.556Z,1000.1
2016-05-22T10:05:49.606Z,1000.1
2016-05-22T10:06:49.656Z,1000.14
2016-05-22T10:07:49.689Z,1000.18
2016-05-22T10:08:49.739Z,1000.17
2016-05-22T10:09:49.788Z,1000.19
2016-05-22T10:10:49.838Z,1000.23
2016-05-22T10:11:49.872Z,1000.27
2016-05-22T10:12:49.936Z,1000.3
2016-05-22T10:13:50.189Z,1000.25
2016-05-22T10:14:50.020Z,1000.3
2016-05-22T10:15:50.054Z,1000.28
2016-05-22T10:16:50.105Z,1000.26
2016-05-22T10:17:50.152Z,1000.23
2016-05-22T10:18:50.188Z,1000.24
2016-05-22T10:19:50.237Z,1000.26
2016-05-22T10:20:50.286Z,1000.2
2016-05-22T10:21:50.336Z,1000.21
2016-05-22T10:22:50.385Z,1000.22
2016-05-22T10:23:50.419Z,1000.21
2016-05-22T10:24:50.469Z,1000.23
2016-05-22T10:25:50.518Z,1000.23
2016-05-22T10:26:50.568Z,1000.25
2016-05-22T10:27:50.602Z,1000.28
2016-05-22T10:28:50.651Z,1000.31
2016-05-22T10:29:50.701Z,1000.31
2016-05-22T10:30:50.750Z,1000.28
2016-05-22T10:31:50.801Z,1000.31
2016-05-22T10:32:50.851Z,1000.23
2016-05-22T10:33:50.884Z,1000.24
2016-05-22T10:34:50.934Z,1000.27
2016-05-22T10:35:50.984Z,1000.3
2016-05-22T10:36:51.033Z,1000.3
2016-05-22T10:37:51.082Z,1000.23
2016-05-22T10:38:51.116Z,1000.16
2016-05-22T10:39:51.166Z,1000.17
2016-05-22T10:40:51.215Z,1000.11
2016-05-22T10:41:51.265Z,1000.09
2016-05-22T10:42:51.299Z,1000.15
2016-05-22T10:43:51.348Z,1000.15
2016-05-22T10:44:51.397Z,1000.17
2016-05-22T10:45:51.433Z,1000.19
2016-05-22T10:46:51.480Z,1000.23
2016-05-22T10:47:51.530Z,1000.26
2016-05-22T10:48:51.580Z,1000.34
2016-05-22T10:49:51.630Z,1000.34
2016-05-22T10:50:51.664Z,1000.32
2016-05-22T10:51:51.713Z,1000.37
2016-05-22T10:52:51.763Z,1000.43
2016-05-22T10:53:51.797Z,1000.48
2016-05-22T10:54:51.847Z,1000.44
2016-05-22T10:55:51.881Z,1000.48
2016-05-22T10:56:51.929Z,1000.51
2016-05-22T10:57:52.010Z,1000.54
2016-05-22T10:58:52.029Z,1000.6
2016-05-22T10:59:52.063Z,1000.62
2016-05-22T11:00:52.129Z,1000.6
2016-05-22T11:01:52.162Z,1000.66
2016-05-22T11:02:52.212Z,1000.73
2016-05-22T11:03:52.246Z,1000.69
2016-05-22T11:04:52.296Z,1000.61
2016-05-22T11:05:52.345Z,1000.68
2016-05-22T11:06:52.378Z,1000.7
2016-05-22T11:07:52.428Z,1000.68
2016-05-22T11:08:52.478Z,1000.8
2016-05-22T11:09:52.511Z,1000.79
2016-05-22T11:10:52.562Z,1000.79
2016-05-22T11:11:52.611Z,1000.83
2016-05-22T11:12:52.645Z,1000.84
2016-05-22T11:13:53.038Z,1000.9
2016-05-22T11:14:52.744Z,1000.94
2016-05-22T11:15:52.794Z,1000.95
2016-05-22T11:16:52.828Z,1000.99
2016-05-22T11:17:52.877Z,1000.9
2016-05-22T11:18:52.927Z,1000.94
2016-05-22T11:19:52.960Z,1000.88
2016-05-22T11:20:53.010Z,1000.95
2016-05-22T11:21:53.060Z,1000.97
2016-05-22T11:22:53.110Z,1000.84
2016-05-22T11:23:53.144Z,1000.94
2016-05-22T11:24:53.193Z,1000.86
2016-05-22T11:25:53.243Z,1000.94
2016-05-22T11:26:53.277Z,1000.92
2016-05-22T11:27:53.326Z,1001.01
2016-05-22T11:28:53.376Z,1000.99
2016-05-22T11:29:53.409Z,1000.97
2016-05-22T11:30:53.459Z,1001.02
2016-05-22T11:31:53.509Z,1001.01
2016-05-22T11:32:53.543Z,1001.05
2016-05-22T11:33:53.593Z,1001.05
2016-05-22T11:34:53.642Z,1001.03
2016-05-22T11:35:53.676Z,1001.03
2016-05-22T11:36:53.726Z,1001.06
2016-05-22T11:37:53.759Z,1001.02
2016-05-22T11:38:53.809Z,1001.06
2016-05-22T11:39:53.858Z,1001.04
2016-05-22T11:40:53.892Z,1001.08
2016-05-22T11:41:53.958Z,1001
2016-05-22T11:42:53.976Z,1000.97
2016-05-22T11:43:54.025Z,1001.01
2016-05-22T11:44:54.075Z,1001
2016-05-22T11:45:54.109Z,1001.07
2016-05-22T11:46:54.159Z,1001.08
2016-05-22T11:47:54.208Z,1001.03
2016-05-22T11:48:54.241Z,1001.01
2016-05-22T11:49:54.292Z,1001.04
2016-05-22T11:50:54.325Z,1001.04
2016-05-22T11:51:54.375Z,1001.06
2016-05-22T11:52:54.425Z,1001.06
2016-05-22T11:53:54.474Z,1001.09
2016-05-22T11:54:54.508Z,1001.14
2016-05-22T11:55:54.558Z,1001.1
2016-05-22T11:56:54.591Z,1001.12
2016-05-22T11:57:54.641Z,1001.1
2016-05-22T11:58:54.690Z,1001.14
2016-05-22T11:59:54.724Z,1001.11
2016-05-22T12:00:54.774Z,1001.19
2016-05-22T12:01:54.824Z,1001.14
2016-05-22T12:02:54.858Z,1001.16
2016-05-22T12:03:54.907Z,1001.1
2016-05-22T12:04:54.957Z,1001.14
2016-05-22T12:05:55.006Z,1001.09
2016-05-22T12:06:55.040Z,1001.06
2016-05-22T12:07:55.090Z,1001.06
2016-05-22T12:08:55.139Z,1001.04
2016-05-22T12:09:55.189Z,1001.01
2016-05-22T12:10:55.239Z,1001.06
2016-05-22T12:11:55.273Z,1001.04
2016-05-22T12:12:55.338Z,1001
2016-05-22T12:13:55.371Z,1000.95